sensor_id;sensor_type;location;lat;lon;timestamp;P1;durP1;ratioP1;P2;durP2;ratioP2
70467;SDS011;57934;51.532;7.684;2023-03-13T00:00:20;21.48;;;3.85;;
70467;SDS011;57934;51.532;7.684;2023-03-13T00:02:46;22.85;;;3.65;;
70467;SDS011;57934;51.532;7.684;2023-03-13T00:05:12;15.23;;;3.72;;
70467;SDS011;57934;51.532;7.684;2023-03-13T00:07:38;23.60;;;4.10;;
70467;SDS011;57934;51.532;7.684;2023-03-13T00:10:05;23.67;;;3.83;;
70467;SDS011;57934;51.532;7.684;2023-03-13T00:12:31;24.30;;;4.28;;
70467;SDS011;57934;51.532;7.684;2023-03-13T00:14:57;18.88;;;3.97;;
70467;SDS011;57934;51.532;7.684;2023-03-13T00:17:23;17.20;;;3.90;;
70467;SDS011;57934;51.532;7.684;2023-03-13T00:19:49;22.02;;;3.90;;
70467;SDS011;57934;51.532;7.684;2023-03-13T00:22:15;14.45;;;4.07;;
70467;SDS011;57934;51.532;7.684;2023-03-13T00:24:41;23.42;;;4.15;;
70467;SDS011;57934;51.532;7.684;2023-03-13T00:27:07;23.40;;;4.63;;
70467;SDS011;57934;51.532;7.684;2023-03-13T00:29:33;17.38;;;3.50;;
70467;SDS011;57934;51.532;7.684;2023-03-13T00:32:00;15.68;;;3.17;;
70467;SDS011;57934;51.532;7.684;2023-03-13T00:34:26;20.63;;;3.78;;
70467;SDS011;57934;51.532;7.684;2023-03-13T00:36:53;24.70;;;3.67;;
70467;SDS011;57934;51.532;7.684;2023-03-13T00:39:21;20.20;;;3.22;;
70467;SDS011;57934;51.532;7.684;2023-03-13T00:41:47;21.38;;;4.22;;
70467;SDS011;57934;51.532;7.684;2023-03-13T00:44:13;23.13;;;3.78;;
70467;SDS011;57934;51.532;7.684;2023-03-13T00:46:39;25.98;;;3.70;;
70467;SDS011;57934;51.532;7.684;2023-03-13T00:49:06;18.42;;;3.55;;
70467;SDS011;57934;51.532;7.684;2023-03-13T00:51:32;17.65;;;4.03;;
70467;SDS011;57934;51.532;7.684;2023-03-13T00:53:59;16.27;;;3.50;;
70467;SDS011;57934;51.532;7.684;2023-03-13T00:56:25;18.30;;;3.97;;
70467;SDS011;57934;51.532;7.684;2023-03-13T00:58:52;23.52;;;4.00;;
70467;SDS011;57934;51.532;7.684;2023-03-13T01:03:48;21.25;;;3.60;;
70467;SDS011;57934;51.532;7.684;2023-03-13T01:06:17;21.30;;;3.40;;
70467;SDS011;57934;51.532;7.684;2023-03-13T01:08:45;22.27;;;3.72;;
70467;SDS011;57934;51.532;7.684;2023-03-13T01:11:13;21.88;;;3.92;;
70467;SDS011;57934;51.532;7.684;2023-03-13T01:13:41;22.30;;;4.28;;
70467;SDS011;57934;51.532;7.684;2023-03-13T01:16:12;22.88;;;3.67;;
70467;SDS011;57934;51.532;7.684;2023-03-13T01:18:43;18.90;;;4.20;;
70467;SDS011;57934;51.532;7.684;2023-03-13T01:21:10;16.33;;;3.65;;
70467;SDS011;57934;51.532;7.684;2023-03-13T01:23:37;15.30;;;3.78;;
70467;SDS011;57934;51.532;7.684;2023-03-13T01:26:04;22.08;;;4.22;;
70467;SDS011;57934;51.532;7.684;2023-03-13T01:28:31;18.73;;;3.30;;
70467;SDS011;57934;51.532;7.684;2023-03-13T01:30:58;15.63;;;3.67;;
70467;SDS011;57934;51.532;7.684;2023-03-13T01:33:25;19.77;;;3.40;;
70467;SDS011;57934;51.532;7.684;2023-03-13T01:35:50;18.55;;;3.97;;
70467;SDS011;57934;51.532;7.684;2023-03-13T01:38:17;20.55;;;3.80;;
70467;SDS011;57934;51.532;7.684;2023-03-13T01:40:44;23.27;;;3.35;;
70467;SDS011;57934;51.532;7.684;2023-03-13T01:43:21;22.15;;;3.45;;
70467;SDS011;57934;51.532;7.684;2023-03-13T01:49:10;17.42;;;2.83;;
70467;SDS011;57934;51.532;7.684;2023-03-13T01:51:57;16.20;;;2.70;;
70467;SDS011;57934;51.532;7.684;2023-03-13T01:54:31;22.42;;;3.33;;
70467;SDS011;57934;51.532;7.684;2023-03-13T01:57:04;19.90;;;3.47;;
70467;SDS011;57934;51.532;7.684;2023-03-13T01:59:42;24.67;;;3.75;;
70467;SDS011;57934;51.532;7.684;2023-03-13T02:02:11;14.85;;;3.55;;
70467;SDS011;57934;51.532;7.684;2023-03-13T02:04:40;16.92;;;4.43;;
70467;SDS011;57934;51.532;7.684;2023-03-13T02:07:16;21.08;;;3.38;;
70467;SDS011;57934;51.532;7.684;2023-03-13T02:09:46;22.23;;;3.75;;
70467;SDS011;57934;51.532;7.684;2023-03-13T02:12:28;24.95;;;3.88;;
70467;SDS011;57934;51.532;7.684;2023-03-13T02:14:56;24.67;;;3.60;;
70467;SDS011;57934;51.532;7.684;2023-03-13T02:17:24;19.45;;;3.70;;
70467;SDS011;57934;51.532;7.684;2023-03-13T02:19:51;17.58;;;4.03;;
70467;SDS011;57934;51.532;7.684;2023-03-13T02:27:47;21.48;;;3.28;;
70467;SDS011;57934;51.532;7.684;2023-03-13T02:30:15;11.30;;;2.63;;
70467;SDS011;57934;51.532;7.684;2023-03-13T02:32:41;22.88;;;4.03;;
70467;SDS011;57934;51.532;7.684;2023-03-13T02:38:58;14.20;;;3.97;;
70467;SDS011;57934;51.532;7.684;2023-03-13T02:41:30;19.27;;;3.30;;
70467;SDS011;57934;51.532;7.684;2023-03-13T02:43:58;21.38;;;4.15;;
70467;SDS011;57934;51.532;7.684;2023-03-13T02:46:24;17.08;;;3.75;;
70467;SDS011;57934;51.532;7.684;2023-03-13T02:48:53;16.90;;;3.78;;
70467;SDS011;57934;51.532;7.684;2023-03-13T02:51:33;17.58;;;3.58;;
70467;SDS011;57934;51.532;7.684;2023-03-13T02:54:10;20.85;;;3.97;;
70467;SDS011;57934;51.532;7.684;2023-03-13T02:56:39;19.70;;;3.85;;
70467;SDS011;57934;51.532;7.684;2023-03-13T02:59:09;19.17;;;3.28;;
70467;SDS011;57934;51.532;7.684;2023-03-13T03:01:38;19.02;;;4.07;;
70467;SDS011;57934;51.532;7.684;2023-03-13T03:04:04;18.33;;;3.22;;
70467;SDS011;57934;51.532;7.684;2023-03-13T03:06:30;15.63;;;4.05;;
70467;SDS011;57934;51.532;7.684;2023-03-13T03:08:57;12.40;;;3.00;;
70467;SDS011;57934;51.532;7.684;2023-03-13T03:11:25;17.73;;;3.60;;
70467;SDS011;57934;51.532;7.684;2023-03-13T03:13:57;18.05;;;3.92;;
70467;SDS011;57934;51.532;7.684;2023-03-13T03:16:25;14.48;;;3.20;;
70467;SDS011;57934;51.532;7.684;2023-03-13T03:18:51;12.73;;;3.30;;
70467;SDS011;57934;51.532;7.684;2023-03-13T03:21:17;14.35;;;3.03;;
70467;SDS011;57934;51.532;7.684;2023-03-13T03:23:43;13.35;;;3.22;;
70467;SDS011;57934;51.532;7.684;2023-03-13T03:26:09;13.73;;;2.75;;
70467;SDS011;57934;51.532;7.684;2023-03-13T03:28:35;16.08;;;3.20;;
70467;SDS011;57934;51.532;7.684;2023-03-13T03:31:05;10.15;;;3.22;;
70467;SDS011;57934;51.532;7.684;2023-03-13T03:33:34;7.28;;;2.28;;
70467;SDS011;57934;51.532;7.684;2023-03-13T03:36:05;8.80;;;2.47;;
70467;SDS011;57934;51.532;7.684;2023-03-13T03:38:32;9.32;;;2.00;;
70467;SDS011;57934;51.532;7.684;2023-03-13T03:40:59;9.40;;;2.25;;
70467;SDS011;57934;51.532;7.684;2023-03-13T03:43:26;11.50;;;3.30;;
70467;SDS011;57934;51.532;7.684;2023-03-13T03:45:52;12.55;;;2.30;;
70467;SDS011;57934;51.532;7.684;2023-03-13T03:48:18;10.02;;;2.47;;
70467;SDS011;57934;51.532;7.684;2023-03-13T03:50:44;10.10;;;2.20;;
70467;SDS011;57934;51.532;7.684;2023-03-13T03:53:13;13.65;;;2.28;;
70467;SDS011;57934;51.532;7.684;2023-03-13T03:55:39;7.00;;;2.00;;
70467;SDS011;57934;51.532;7.684;2023-03-13T03:58:05;4.97;;;1.90;;
70467;SDS011;57934;51.532;7.684;2023-03-13T04:01:00;8.50;;;2.15;;
70467;SDS011;57934;51.532;7.684;2023-03-13T04:03:27;8.60;;;2.00;;
70467;SDS011;57934;51.532;7.684;2023-03-13T04:05:53;7.78;;;1.83;;
70467;SDS011;57934;51.532;7.684;2023-03-13T04:08:22;4.82;;;2.03;;
70467;SDS011;57934;51.532;7.684;2023-03-13T04:10:49;5.78;;;1.77;;
70467;SDS011;57934;51.532;7.684;2023-03-13T04:13:17;11.15;;;2.30;;
70467;SDS011;57934;51.532;7.684;2023-03-13T04:15:44;9.85;;;2.67;;
70467;SDS011;57934;51.532;7.684;2023-03-13T04:18:11;7.65;;;2.05;;
70467;SDS011;57934;51.532;7.684;2023-03-13T04:20:37;8.90;;;2.00;;
70467;SDS011;57934;51.532;7.684;2023-03-13T04:23:03;10.05;;;1.85;;
70467;SDS011;57934;51.532;7.684;2023-03-13T04:25:29;6.68;;;2.08;;
70467;SDS011;57934;51.532;7.684;2023-03-13T04:27:58;5.53;;;1.63;;
70467;SDS011;57934;51.532;7.684;2023-03-13T04:30:30;8.85;;;1.80;;
70467;SDS011;57934;51.532;7.684;2023-03-13T04:33:06;7.93;;;2.10;;
70467;SDS011;57934;51.532;7.684;2023-03-13T04:36:01;4.72;;;2.20;;
70467;SDS011;57934;51.532;7.684;2023-03-13T04:38:43;3.97;;;1.60;;
70467;SDS011;57934;51.532;7.684;2023-03-13T04:41:22;6.63;;;2.08;;
70467;SDS011;57934;51.532;7.684;2023-03-13T04:43:59;8.45;;;1.88;;
70467;SDS011;57934;51.532;7.684;2023-03-13T04:46:35;8.02;;;2.03;;
70467;SDS011;57934;51.532;7.684;2023-03-13T04:49:20;7.55;;;2.17;;
70467;SDS011;57934;51.532;7.684;2023-03-13T04:52:01;5.50;;;1.77;;
70467;SDS011;57934;51.532;7.684;2023-03-13T04:54:48;9.55;;;2.00;;
70467;SDS011;57934;51.532;7.684;2023-03-13T04:57:29;5.13;;;2.42;;
70467;SDS011;57934;51.532;7.684;2023-03-13T05:00:04;6.53;;;1.67;;
70467;SDS011;57934;51.532;7.684;2023-03-13T05:02:51;5.35;;;1.90;;
70467;SDS011;57934;51.532;7.684;2023-03-13T05:05:35;3.67;;;1.58;;
70467;SDS011;57934;51.532;7.684;2023-03-13T05:08:18;4.13;;;2.00;;
70467;SDS011;57934;51.532;7.684;2023-03-13T05:10:58;7.93;;;2.30;;
70467;SDS011;57934;51.532;7.684;2023-03-13T05:13:47;4.22;;;1.60;;
70467;SDS011;57934;51.532;7.684;2023-03-13T05:16:35;6.70;;;1.73;;
70467;SDS011;57934;51.532;7.684;2023-03-13T05:19:26;7.15;;;1.92;;
70467;SDS011;57934;51.532;7.684;2023-03-13T05:22:18;4.00;;;1.80;;
70467;SDS011;57934;51.532;7.684;2023-03-13T05:24:53;8.32;;;1.88;;
70467;SDS011;57934;51.532;7.684;2023-03-13T05:27:37;1.33;;;1.23;;
70467;SDS011;57934;51.532;7.684;2023-03-13T05:30:29;3.20;;;1.88;;
70467;SDS011;57934;51.532;7.684;2023-03-13T05:33:22;7.53;;;2.40;;
70467;SDS011;57934;51.532;7.684;2023-03-13T05:36:14;5.65;;;1.90;;
70467;SDS011;57934;51.532;7.684;2023-03-13T05:38:57;7.38;;;2.47;;
70467;SDS011;57934;51.532;7.684;2023-03-13T05:41:43;5.40;;;2.10;;
70467;SDS011;57934;51.532;7.684;2023-03-13T05:44:19;4.00;;;1.95;;
70467;SDS011;57934;51.532;7.684;2023-03-13T05:47:13;3.80;;;2.03;;
70467;SDS011;57934;51.532;7.684;2023-03-13T05:49:58;3.08;;;1.92;;
70467;SDS011;57934;51.532;7.684;2023-03-13T05:52:34;5.80;;;2.00;;
70467;SDS011;57934;51.532;7.684;2023-03-13T05:55:27;7.30;;;2.13;;
70467;SDS011;57934;51.532;7.684;2023-03-13T05:58:19;3.88;;;2.10;;
70467;SDS011;57934;51.532;7.684;2023-03-13T06:01:08;4.45;;;2.17;;
70467;SDS011;57934;51.532;7.684;2023-03-13T06:03:47;3.75;;;2.10;;
70467;SDS011;57934;51.532;7.684;2023-03-13T06:06:15;4.60;;;2.70;;
70467;SDS011;57934;51.532;7.684;2023-03-13T06:08:50;3.65;;;2.92;;
70467;SDS011;57934;51.532;7.684;2023-03-13T06:11:18;6.95;;;3.10;;
70467;SDS011;57934;51.532;7.684;2023-03-13T06:13:44;4.38;;;3.13;;
70467;SDS011;57934;51.532;7.684;2023-03-13T06:16:42;5.80;;;3.72;;
70467;SDS011;57934;51.532;7.684;2023-03-13T06:19:18;6.80;;;3.90;;
70467;SDS011;57934;51.532;7.684;2023-03-13T06:21:44;6.93;;;3.70;;
70467;SDS011;57934;51.532;7.684;2023-03-13T06:24:10;4.45;;;3.40;;
70467;SDS011;57934;51.532;7.684;2023-03-13T06:26:36;6.70;;;4.00;;
70467;SDS011;57934;51.532;7.684;2023-03-13T06:29:02;6.90;;;3.65;;
70467;SDS011;57934;51.532;7.684;2023-03-13T06:31:28;5.32;;;3.35;;
70467;SDS011;57934;51.532;7.684;2023-03-13T06:33:54;3.88;;;3.50;;
70467;SDS011;57934;51.532;7.684;2023-03-13T06:36:21;8.73;;;3.50;;
70467;SDS011;57934;51.532;7.684;2023-03-13T06:38:48;4.45;;;3.53;;
70467;SDS011;57934;51.532;7.684;2023-03-13T06:41:15;6.30;;;3.60;;
70467;SDS011;57934;51.532;7.684;2023-03-13T06:43:41;7.10;;;4.85;;
70467;SDS011;57934;51.532;7.684;2023-03-13T06:46:07;7.28;;;3.10;;
70467;SDS011;57934;51.532;7.684;2023-03-13T06:48:41;4.15;;;2.67;;
70467;SDS011;57934;51.532;7.684;2023-03-13T06:51:15;4.80;;;2.40;;
70467;SDS011;57934;51.532;7.684;2023-03-13T06:53:45;5.38;;;1.98;;
70467;SDS011;57934;51.532;7.684;2023-03-13T06:56:12;2.10;;;1.85;;
70467;SDS011;57934;51.532;7.684;2023-03-13T06:58:39;1.88;;;1.77;;
70467;SDS011;57934;51.532;7.684;2023-03-13T07:01:06;2.63;;;1.70;;
70467;SDS011;57934;51.532;7.684;2023-03-13T07:03:37;2.13;;;1.48;;
70467;SDS011;57934;51.532;7.684;2023-03-13T07:06:03;2.22;;;1.55;;
70467;SDS011;57934;51.532;7.684;2023-03-13T07:08:30;2.83;;;1.45;;
70467;SDS011;57934;51.532;7.684;2023-03-13T07:10:57;2.88;;;1.48;;
70467;SDS011;57934;51.532;7.684;2023-03-13T07:13:25;2.03;;;1.60;;
70467;SDS011;57934;51.532;7.684;2023-03-13T07:15:51;1.88;;;1.55;;
70467;SDS011;57934;51.532;7.684;2023-03-13T07:18:18;2.15;;;1.45;;
70467;SDS011;57934;51.532;7.684;2023-03-13T07:20:50;2.72;;;1.50;;
70467;SDS011;57934;51.532;7.684;2023-03-13T07:23:20;3.33;;;1.83;;
70467;SDS011;57934;51.532;7.684;2023-03-13T07:25:57;3.67;;;1.77;;
70467;SDS011;57934;51.532;7.684;2023-03-13T07:28:25;2.33;;;2.13;;
70467;SDS011;57934;51.532;7.684;2023-03-13T07:30:52;3.50;;;1.67;;
70467;SDS011;57934;51.532;7.684;2023-03-13T07:33:18;2.63;;;2.10;;
70467;SDS011;57934;51.532;7.684;2023-03-13T07:35:48;4.10;;;2.05;;
70467;SDS011;57934;51.532;7.684;2023-03-13T07:38:16;2.70;;;2.00;;
70467;SDS011;57934;51.532;7.684;2023-03-13T07:40:53;5.18;;;1.83;;
70467;SDS011;57934;51.532;7.684;2023-03-13T07:43:21;3.10;;;1.85;;
70467;SDS011;57934;51.532;7.684;2023-03-13T07:45:52;3.95;;;1.65;;
70467;SDS011;57934;51.532;7.684;2023-03-13T07:48:19;4.68;;;1.70;;
70467;SDS011;57934;51.532;7.684;2023-03-13T07:50:46;4.32;;;1.75;;
70467;SDS011;57934;51.532;7.684;2023-03-13T07:53:13;5.55;;;2.13;;
70467;SDS011;57934;51.532;7.684;2023-03-13T07:55:52;3.78;;;1.90;;
70467;SDS011;57934;51.532;7.684;2023-03-13T07:58:21;6.10;;;1.90;;
70467;SDS011;57934;51.532;7.684;2023-03-13T08:00:48;1.80;;;1.70;;
70467;SDS011;57934;51.532;7.684;2023-03-13T08:03:14;2.50;;;1.70;;
70467;SDS011;57934;51.532;7.684;2023-03-13T08:05:40;1.83;;;1.50;;
70467;SDS011;57934;51.532;7.684;2023-03-13T08:08:06;3.40;;;2.10;;
70467;SDS011;57934;51.532;7.684;2023-03-13T08:10:33;3.63;;;2.00;;
70467;SDS011;57934;51.532;7.684;2023-03-13T08:12:59;6.07;;;2.70;;
70467;SDS011;57934;51.532;7.684;2023-03-13T08:15:25;3.85;;;1.80;;
70467;SDS011;57934;51.532;7.684;2023-03-13T08:17:56;3.00;;;2.22;;
70467;SDS011;57934;51.532;7.684;2023-03-13T08:20:22;4.55;;;1.80;;
70467;SDS011;57934;51.532;7.684;2023-03-13T08:22:48;2.78;;;2.10;;
70467;SDS011;57934;51.532;7.684;2023-03-13T08:25:15;4.30;;;1.90;;
70467;SDS011;57934;51.532;7.684;2023-03-13T08:27:41;2.70;;;1.85;;
70467;SDS011;57934;51.532;7.684;2023-03-13T08:30:08;7.47;;;2.65;;
70467;SDS011;57934;51.532;7.684;2023-03-13T08:32:35;5.60;;;2.03;;
70467;SDS011;57934;51.532;7.684;2023-03-13T08:35:01;4.45;;;2.35;;
70467;SDS011;57934;51.532;7.684;2023-03-13T08:37:28;3.42;;;1.88;;
70467;SDS011;57934;51.532;7.684;2023-03-13T08:39:54;5.07;;;2.10;;
70467;SDS011;57934;51.532;7.684;2023-03-13T08:42:21;5.82;;;2.10;;
70467;SDS011;57934;51.532;7.684;2023-03-13T08:44:48;3.10;;;1.90;;
70467;SDS011;57934;51.532;7.684;2023-03-13T08:47:14;6.80;;;2.20;;
70467;SDS011;57934;51.532;7.684;2023-03-13T08:49:43;3.70;;;2.22;;
70467;SDS011;57934;51.532;7.684;2023-03-13T08:52:09;6.65;;;2.40;;
70467;SDS011;57934;51.532;7.684;2023-03-13T08:54:35;4.80;;;2.05;;
70467;SDS011;57934;51.532;7.684;2023-03-13T08:57:01;6.97;;;2.03;;
70467;SDS011;57934;51.532;7.684;2023-03-13T08:59:27;7.13;;;2.30;;
70467;SDS011;57934;51.532;7.684;2023-03-13T09:01:53;6.28;;;2.20;;
70467;SDS011;57934;51.532;7.684;2023-03-13T09:04:19;6.72;;;2.20;;
70467;SDS011;57934;51.532;7.684;2023-03-13T09:06:45;6.75;;;2.47;;
70467;SDS011;57934;51.532;7.684;2023-03-13T09:09:11;9.02;;;2.38;;
70467;SDS011;57934;51.532;7.684;2023-03-13T09:11:38;8.20;;;2.38;;
70467;SDS011;57934;51.532;7.684;2023-03-13T09:14:05;5.90;;;2.00;;
70467;SDS011;57934;51.532;7.684;2023-03-13T09:16:32;7.32;;;2.50;;
70467;SDS011;57934;51.532;7.684;2023-03-13T09:19:00;6.10;;;2.60;;
70467;SDS011;57934;51.532;7.684;2023-03-13T09:21:27;7.72;;;2.38;;
70467;SDS011;57934;51.532;7.684;2023-03-13T09:23:55;5.82;;;2.45;;
70467;SDS011;57934;51.532;7.684;2023-03-13T09:26:21;5.75;;;2.17;;
70467;SDS011;57934;51.532;7.684;2023-03-13T09:28:49;3.15;;;1.90;;
70467;SDS011;57934;51.532;7.684;2023-03-13T09:31:17;3.88;;;2.22;;
70467;SDS011;57934;51.532;7.684;2023-03-13T09:33:44;10.48;;;2.95;;
70467;SDS011;57934;51.532;7.684;2023-03-13T09:36:11;3.22;;;2.15;;
70467;SDS011;57934;51.532;7.684;2023-03-13T09:38:38;6.05;;;2.40;;
70467;SDS011;57934;51.532;7.684;2023-03-13T09:41:17;5.63;;;2.20;;
70467;SDS011;57934;51.532;7.684;2023-03-13T09:49:26;7.25;;;2.90;;
70467;SDS011;57934;51.532;7.684;2023-03-13T09:52:01;6.22;;;2.45;;
70467;SDS011;57934;51.532;7.684;2023-03-13T09:54:57;8.63;;;2.72;;
70467;SDS011;57934;51.532;7.684;2023-03-13T09:57:32;9.57;;;2.33;;
70467;SDS011;57934;51.532;7.684;2023-03-13T10:03:20;4.82;;;3.10;;
70467;SDS011;57934;51.532;7.684;2023-03-13T10:06:00;6.43;;;2.92;;
70467;SDS011;57934;51.532;7.684;2023-03-13T10:08:30;5.70;;;2.45;;
70467;SDS011;57934;51.532;7.684;2023-03-13T10:11:00;6.82;;;2.95;;
70467;SDS011;57934;51.532;7.684;2023-03-13T10:14:00;4.75;;;2.50;;
70467;SDS011;57934;51.532;7.684;2023-03-13T10:16:33;5.03;;;2.05;;
70467;SDS011;57934;51.532;7.684;2023-03-13T10:19:09;6.93;;;2.08;;
70467;SDS011;57934;51.532;7.684;2023-03-13T10:21:38;2.85;;;1.63;;
70467;SDS011;57934;51.532;7.684;2023-03-13T10:24:15;4.22;;;2.17;;
70467;SDS011;57934;51.532;7.684;2023-03-13T10:26:47;4.65;;;2.40;;
70467;SDS011;57934;51.532;7.684;2023-03-13T10:34:43;5.35;;;2.15;;
70467;SDS011;57934;51.532;7.684;2023-03-13T10:37:11;6.35;;;2.28;;
70467;SDS011;57934;51.532;7.684;2023-03-13T10:39:40;3.25;;;1.48;;
70467;SDS011;57934;51.532;7.684;2023-03-13T10:45:00;3.15;;;1.73;;
70467;SDS011;57934;51.532;7.684;2023-03-13T10:47:33;5.15;;;1.80;;
70467;SDS011;57934;51.532;7.684;2023-03-13T10:50:02;5.03;;;1.35;;
70467;SDS011;57934;51.532;7.684;2023-03-13T10:52:42;2.50;;;1.55;;
70467;SDS011;57934;51.532;7.684;2023-03-13T10:55:20;3.03;;;1.30;;
70467;SDS011;57934;51.532;7.684;2023-03-13T10:58:03;3.65;;;1.30;;
70467;SDS011;57934;51.532;7.684;2023-03-13T11:00:39;2.08;;;1.25;;
70467;SDS011;57934;51.532;7.684;2023-03-13T11:03:14;2.03;;;1.40;;
70467;SDS011;57934;51.532;7.684;2023-03-13T11:05:43;1.25;;;1.10;;
70467;SDS011;57934;51.532;7.684;2023-03-13T11:08:19;4.18;;;1.20;;
70467;SDS011;57934;51.532;7.684;2023-03-13T11:10:55;2.70;;;1.33;;
70467;SDS011;57934;51.532;7.684;2023-03-13T11:13:40;3.13;;;0.98;;
70467;SDS011;57934;51.532;7.684;2023-03-13T11:16:25;2.63;;;1.17;;
70467;SDS011;57934;51.532;7.684;2023-03-13T11:26:59;1.10;;;0.77;;
70467;SDS011;57934;51.532;7.684;2023-03-13T11:29:28;3.17;;;1.13;;
70467;SDS011;57934;51.532;7.684;2023-03-13T11:32:12;0.63;;;0.63;;
70467;SDS011;57934;51.532;7.684;2023-03-13T11:35:03;2.63;;;1.20;;
70467;SDS011;57934;51.532;7.684;2023-03-13T11:37:39;2.08;;;0.80;;
70467;SDS011;57934;51.532;7.684;2023-03-13T11:40:18;2.03;;;0.93;;
70467;SDS011;57934;51.532;7.684;2023-03-13T11:43:03;1.00;;;0.73;;
70467;SDS011;57934;51.532;7.684;2023-03-13T11:45:53;1.92;;;0.70;;
70467;SDS011;57934;51.532;7.684;2023-03-13T11:54:23;1.23;;;0.60;;
70467;SDS011;57934;51.532;7.684;2023-03-13T11:57:12;3.63;;;0.80;;
70467;SDS011;57934;51.532;7.684;2023-03-13T12:00:16;3.00;;;0.75;;
70467;SDS011;57934;51.532;7.684;2023-03-13T12:05:15;3.28;;;0.82;;
70467;SDS011;57934;51.532;7.684;2023-03-13T12:07:56;2.53;;;0.85;;
70467;SDS011;57934;51.532;7.684;2023-03-13T12:10:38;2.20;;;0.75;;
70467;SDS011;57934;51.532;7.684;2023-03-13T12:13:13;0.60;;;0.60;;
70467;SDS011;57934;51.532;7.684;2023-03-13T12:15:48;0.65;;;0.65;;
70467;SDS011;57934;51.532;7.684;2023-03-13T12:26:03;1.10;;;0.73;;
70467;SDS011;57934;51.532;7.684;2023-03-13T12:36:31;1.25;;;0.70;;
70467;SDS011;57934;51.532;7.684;2023-03-13T12:39:39;0.68;;;0.68;;
70467;SDS011;57934;51.532;7.684;2023-03-13T12:45:06;0.70;;;0.70;;
70467;SDS011;57934;51.532;7.684;2023-03-13T12:50:26;2.60;;;0.65;;
70467;SDS011;57934;51.532;7.684;2023-03-13T13:01:05;1.25;;;0.70;;
70467;SDS011;57934;51.532;7.684;2023-03-13T13:03:44;4.35;;;0.90;;
70467;SDS011;57934;51.532;7.684;2023-03-13T13:06:22;2.00;;;0.57;;
70467;SDS011;57934;51.532;7.684;2023-03-13T13:14:00;1.05;;;0.50;;
70467;SDS011;57934;51.532;7.684;2023-03-13T13:16:26;2.47;;;0.80;;
70467;SDS011;57934;51.532;7.684;2023-03-13T13:18:54;1.85;;;0.50;;
70467;SDS011;57934;51.532;7.684;2023-03-13T13:21:21;4.28;;;0.80;;
70467;SDS011;57934;51.532;7.684;2023-03-13T13:23:51;2.65;;;0.57;;
70467;SDS011;57934;51.532;7.684;2023-03-13T13:28:59;2.65;;;0.60;;
70467;SDS011;57934;51.532;7.684;2023-03-13T13:36:57;0.55;;;0.40;;
70467;SDS011;57934;51.532;7.684;2023-03-13T13:39:44;4.07;;;0.63;;
70467;SDS011;57934;51.532;7.684;2023-03-13T13:42:36;2.38;;;0.60;;
70467;SDS011;57934;51.532;7.684;2023-03-13T13:47:40;5.05;;;0.45;;
70467;SDS011;57934;51.532;7.684;2023-03-13T13:50:24;2.13;;;0.63;;
70467;SDS011;57934;51.532;7.684;2023-03-13T13:52:52;3.67;;;1.52;;
70467;SDS011;57934;51.532;7.684;2023-03-13T13:55:58;1.83;;;0.65;;
70467;SDS011;57934;51.532;7.684;2023-03-13T13:58:26;2.58;;;0.55;;
70467;SDS011;57934;51.532;7.684;2023-03-13T14:00:55;5.93;;;0.80;;
70467;SDS011;57934;51.532;7.684;2023-03-13T14:03:29;0.73;;;0.50;;
70467;SDS011;57934;51.532;7.684;2023-03-13T14:06:09;3.85;;;0.73;;
70467;SDS011;57934;51.532;7.684;2023-03-13T14:08:41;4.10;;;0.90;;
70467;SDS011;57934;51.532;7.684;2023-03-13T14:13:39;4.72;;;0.68;;
70467;SDS011;57934;51.532;7.684;2023-03-13T14:16:19;2.33;;;0.68;;
70467;SDS011;57934;51.532;7.684;2023-03-13T14:21:23;6.30;;;0.80;;
70467;SDS011;57934;51.532;7.684;2023-03-13T14:23:51;2.28;;;0.57;;
70467;SDS011;57934;51.532;7.684;2023-03-13T14:26:21;6.03;;;0.68;;
70467;SDS011;57934;51.532;7.684;2023-03-13T14:28:50;4.53;;;0.77;;
70467;SDS011;57934;51.532;7.684;2023-03-13T14:31:26;3.22;;;0.75;;
70467;SDS011;57934;51.532;7.684;2023-03-13T14:34:00;2.75;;;0.90;;
70467;SDS011;57934;51.532;7.684;2023-03-13T14:36:29;3.33;;;0.90;;
70467;SDS011;57934;51.532;7.684;2023-03-13T14:38:56;2.17;;;0.85;;
70467;SDS011;57934;51.532;7.684;2023-03-13T14:41:31;2.25;;;0.80;;
70467;SDS011;57934;51.532;7.684;2023-03-13T14:44:02;2.15;;;0.80;;
70467;SDS011;57934;51.532;7.684;2023-03-13T14:46:39;3.90;;;0.70;;
70467;SDS011;57934;51.532;7.684;2023-03-13T14:49:07;3.13;;;0.70;;
70467;SDS011;57934;51.532;7.684;2023-03-13T14:51:40;3.03;;;0.70;;
70467;SDS011;57934;51.532;7.684;2023-03-13T14:54:26;3.60;;;0.60;;
70467;SDS011;57934;51.532;7.684;2023-03-13T14:59:42;3.47;;;1.02;;
70467;SDS011;57934;51.532;7.684;2023-03-13T15:04:56;1.60;;;0.50;;
70467;SDS011;57934;51.532;7.684;2023-03-13T15:07:26;3.03;;;0.70;;
70467;SDS011;57934;51.532;7.684;2023-03-13T15:10:21;1.50;;;0.50;;
70467;SDS011;57934;51.532;7.684;2023-03-13T15:12:51;1.95;;;0.50;;
70467;SDS011;57934;51.532;7.684;2023-03-13T15:15:17;1.70;;;0.60;;
70467;SDS011;57934;51.532;7.684;2023-03-13T15:17:44;2.10;;;0.63;;
70467;SDS011;57934;51.532;7.684;2023-03-13T15:20:11;1.67;;;0.80;;
70467;SDS011;57934;51.532;7.684;2023-03-13T15:22:40;4.47;;;0.80;;
70467;SDS011;57934;51.532;7.684;2023-03-13T15:27:44;2.00;;;0.50;;
70467;SDS011;57934;51.532;7.684;2023-03-13T15:30:14;3.58;;;0.63;;
70467;SDS011;57934;51.532;7.684;2023-03-13T15:32:41;1.48;;;0.70;;
70467;SDS011;57934;51.532;7.684;2023-03-13T15:35:28;2.25;;;0.55;;
70467;SDS011;57934;51.532;7.684;2023-03-13T15:37:56;2.75;;;0.73;;
70467;SDS011;57934;51.532;7.684;2023-03-13T15:40:24;3.30;;;0.80;;
70467;SDS011;57934;51.532;7.684;2023-03-13T15:42:52;0.95;;;0.70;;
70467;SDS011;57934;51.532;7.684;2023-03-13T15:45:19;1.85;;;1.05;;
70467;SDS011;57934;51.532;7.684;2023-03-13T15:47:45;5.22;;;0.80;;
70467;SDS011;57934;51.532;7.684;2023-03-13T15:50:17;1.15;;;0.88;;
70467;SDS011;57934;51.532;7.684;2023-03-13T15:52:45;1.60;;;0.85;;
70467;SDS011;57934;51.532;7.684;2023-03-13T15:55:11;3.70;;;1.00;;
70467;SDS011;57934;51.532;7.684;2023-03-13T15:57:41;1.05;;;0.65;;
70467;SDS011;57934;51.532;7.684;2023-03-13T16:02:47;1.70;;;0.70;;
70467;SDS011;57934;51.532;7.684;2023-03-13T16:05:14;1.73;;;0.70;;
70467;SDS011;57934;51.532;7.684;2023-03-13T16:07:41;1.20;;;1.00;;
70467;SDS011;57934;51.532;7.684;2023-03-13T16:10:13;1.75;;;0.98;;
70467;SDS011;57934;51.532;7.684;2023-03-13T16:12:41;2.10;;;0.98;;
70467;SDS011;57934;51.532;7.684;2023-03-13T16:15:08;4.63;;;1.17;;
70467;SDS011;57934;51.532;7.684;2023-03-13T16:17:35;4.47;;;0.80;;
70467;SDS011;57934;51.532;7.684;2023-03-13T16:20:01;2.55;;;1.00;;
70467;SDS011;57934;51.532;7.684;2023-03-13T16:22:30;3.22;;;1.00;;
70467;SDS011;57934;51.532;7.684;2023-03-13T16:24:56;2.97;;;0.90;;
70467;SDS011;57934;51.532;7.684;2023-03-13T16:27:22;3.88;;;0.90;;
70467;SDS011;57934;51.532;7.684;2023-03-13T16:29:51;1.30;;;0.88;;
70467;SDS011;57934;51.532;7.684;2023-03-13T16:32:17;1.27;;;0.70;;
70467;SDS011;57934;51.532;7.684;2023-03-13T16:34:48;2.40;;;0.80;;
70467;SDS011;57934;51.532;7.684;2023-03-13T16:37:16;5.80;;;0.88;;
70467;SDS011;57934;51.532;7.684;2023-03-13T16:39:43;3.22;;;1.15;;
70467;SDS011;57934;51.532;7.684;2023-03-13T16:42:10;2.28;;;0.82;;
70467;SDS011;57934;51.532;7.684;2023-03-13T16:44:37;3.30;;;1.20;;
70467;SDS011;57934;51.532;7.684;2023-03-13T16:47:26;3.45;;;1.20;;
70467;SDS011;57934;51.532;7.684;2023-03-13T16:49:52;1.58;;;1.08;;
70467;SDS011;57934;51.532;7.684;2023-03-13T16:52:19;2.17;;;0.93;;
70467;SDS011;57934;51.532;7.684;2023-03-13T16:54:45;2.67;;;1.02;;
70467;SDS011;57934;51.532;7.684;2023-03-13T16:57:13;4.68;;;1.02;;
70467;SDS011;57934;51.532;7.684;2023-03-13T16:59:42;1.92;;;0.93;;
70467;SDS011;57934;51.532;7.684;2023-03-13T17:02:13;3.15;;;0.90;;